My Meet Scores
Alyssa Nelson, Patti Dunne's School Of Gymnastics - MyMeetScores.com
Top100 | Top Teams | Upcoming Meets | Completed Meets | Latest | Add Scores | Help| Support | Bookmark and Share

Alyssa Nelson, Patti Dunne's School Of Gymnastics
Personal Bests
LevelVault BarsBeamFloorAA
39.3009.675 9.4509.35037.375
48.6009.050 8.9259.10034.875
Meet Scores
Date Meet Team Session Level Division Vault Bars Beam Floor AA
2019-02-08 Team Challenge 2019 Patti Dunne's School Of Gymnastics R5 4 Sr B 8.500 7 7.100 8 8.375 7 8.650 5 32.625 8
2019-02-01 State Level 4&5 Patti Dunne's School Of Gymnastics 2 4 11A 8.400 48T 8.000 39T 8.875 31T 8.700 33T 33.975 40T
2019-01-26 Manhattan Classic Patti Dunne's School Of Gymnastics 4CP 4 Junior A 8.600 15T 7.850 16 8.900 12T 8.725 13T 34.075 14
2019-01-18 DGS Northeast Invite Patti Dunne's School Of Gymnastics 6A 4 Ch D 8.500 6T 8.700 1T 8.925 5 8.750 4T 34.875 5
2019-01-10 Little Boston Invitational Patti Dunne's School Of Gymnastics C10 4 SR 8.150 22 8.275 12T 8.075 17 8.000 10T 32.500 14
2018-12-14 Shen's New England Classic Patti Dunne's School Of Gymnastics 08 4 JR A 8.200 7 9.050 3 8.700 8 8.175 6 34.125 5
2018-12-08 American Gymnastics Invitational Patti Dunne's School Of Gymnastics 5 4 Sr A 7.850 9 6.750 10 8.350 10 9.100 2 32.050 8
2018-11-17 2018 Connecticut Judge's Cup Patti Dunne's School Of Gymnastics 6 4 10 yrs. 8.450 39T 8.000 39T 8.200 38T 8.500 44 33.150 40T
2018-02-16 Chelsea Piers Winter Challenge Patti Dunne's School Of Gymnastics C-7 3 SR 8.700 14T 9.150 5T 9.050 5T 9.025 6 35.925 7
2018-02-09 Team Challenge 2018 Patti Dunne's School Of Gymnastics 05B 3 Sr B 9.050 12 9.675 4 8.825 14T 8.500 16T 36.050 11
2018-01-26 2018 American Invitational Patti Dunne's School Of Gymnastics 8B 3 Older 9.300 5T 9.275 5 9.450 1 9.350 6T 37.375 2
2018-01-19 Kinetic Kids Invitational Patti Dunne's School Of Gymnastics 1 3 Sr A 9.200 3T 9.500 2 9.150 5 8.700 8T 36.550 5
2018-01-12 DGS Invitational Patti Dunne's School Of Gymnastics 9B 3 10+ yrs. 8.800 10T 8.800 7 8.350 8T 9.150 1T 35.100 6T
2017-11-30 Rhode Island Invitational Patti Dunne's School Of Gymnastics WS2 3 senior 8.250 8 9.500 2 8.900 3 8.675 3 35.325 3
2017-03-25 2017 Connecticut Level 3 State Cup Patti Dunne's School Of Gymnastics 6 3 N/A 8.700 54T 8.300 44 8.400 38T 8.275 53 33.675 48
2017-02-18 Chelsea Piers Winter Challenge Patti Dunne's School Of Gymnastics F-4 3 Jr B 9.250 5 9.300 8T 9.250 12T 8.850 5 36.650 6
2017-02-10 Team Challenge 2017 Patti Dunne's School Of Gymnastics 10B 3 Junior 8.250 12 8.850 8 8.700 9 8.300 11 34.100 11
2017-01-27 24th Annual American Invitational Patti Dunne's School Of Gymnastics 6A 3 Junior 8.650 24 8.600 17 8.500 20T 7.450 25T 33.200 25T
2017-01-13 Northeast Invitational Patti Dunne's School Of Gymnastics 9 3 9 yrs. 8.200 20 8.700 9T 8.750 11 7.750 21 33.400 16
2016-12-02 Rhode Island Invitational Patti Dunne's School Of Gymnastics WS4 3 Junior 8.475 11T 8.025 11 8.500 4 7.600 13 32.600 9
Get your scores on
a t-shirt, pin, or hoodie

www.lazysuits.com